sensor_id;sensor_type;location;lat;lon;timestamp;pressure;altitude;pressure_sealevel;temperature;humidity
9839;BME280;4958;48.150;11.506;2023-01-31T00:01:04;96257.81;;;3.67;76.97
9839;BME280;4958;48.150;11.506;2023-01-31T00:03:31;96261.88;;;3.58;77.06
9839;BME280;4958;48.150;11.506;2023-01-31T00:05:57;96259.00;;;3.63;76.98
9839;BME280;4958;48.150;11.506;2023-01-31T00:08:23;96262.34;;;3.63;76.67
9839;BME280;4958;48.150;11.506;2023-01-31T00:10:50;96265.13;;;3.60;77.14
9839;BME280;4958;48.150;11.506;2023-01-31T00:13:17;96254.94;;;3.60;77.32
9839;BME280;4958;48.150;11.506;2023-01-31T00:15:44;96250.44;;;3.64;76.90
9839;BME280;4958;48.150;11.506;2023-01-31T00:18:10;96249.50;;;3.65;77.12
9839;BME280;4958;48.150;11.506;2023-01-31T00:20:36;96248.56;;;3.66;77.07
9839;BME280;4958;48.150;11.506;2023-01-31T00:23:03;96253.63;;;3.66;76.84
9839;BME280;4958;48.150;11.506;2023-01-31T00:25:29;96262.56;;;3.60;77.10
9839;BME280;4958;48.150;11.506;2023-01-31T00:27:57;96269.72;;;3.66;76.84
9839;BME280;4958;48.150;11.506;2023-01-31T00:30:24;96270.69;;;3.65;76.92
9839;BME280;4958;48.150;11.506;2023-01-31T00:32:51;96261.78;;;3.60;77.48
9839;BME280;4958;48.150;11.506;2023-01-31T00:35:17;96261.53;;;3.63;77.52
9839;BME280;4958;48.150;11.506;2023-01-31T00:37:44;96260.72;;;3.62;77.07
9839;BME280;4958;48.150;11.506;2023-01-31T00:40:11;96264.09;;;3.63;77.35
9839;BME280;4958;48.150;11.506;2023-01-31T00:42:37;96254.81;;;3.62;77.39
9839;BME280;4958;48.150;11.506;2023-01-31T00:45:05;96253.53;;;3.67;77.13
9839;BME280;4958;48.150;11.506;2023-01-31T00:47:33;96248.47;;;3.56;77.29
9839;BME280;4958;48.150;11.506;2023-01-31T00:50:00;96255.41;;;3.54;77.79
9839;BME280;4958;48.150;11.506;2023-01-31T00:52:26;96247.88;;;3.53;78.05
9839;BME280;4958;48.150;11.506;2023-01-31T00:54:53;96241.28;;;3.61;77.41
9839;BME280;4958;48.150;11.506;2023-01-31T00:57:19;96242.78;;;3.64;77.39
9839;BME280;4958;48.150;11.506;2023-01-31T00:59:45;96250.66;;;3.61;77.54
9839;BME280;4958;48.150;11.506;2023-01-31T01:02:41;96257.13;;;3.54;77.76
9839;BME280;4958;48.150;11.506;2023-01-31T01:05:10;96252.84;;;3.54;78.24
9839;BME280;4958;48.150;11.506;2023-01-31T01:07:37;96245.81;;;3.58;77.61
9839;BME280;4958;48.150;11.506;2023-01-31T01:10:09;96258.41;;;3.59;77.60
9839;BME280;4958;48.150;11.506;2023-01-31T01:12:39;96256.44;;;3.63;77.66
9839;BME280;4958;48.150;11.506;2023-01-31T01:15:06;96255.75;;;3.61;77.59
9839;BME280;4958;48.150;11.506;2023-01-31T01:17:33;96255.16;;;3.57;77.79
9839;BME280;4958;48.150;11.506;2023-01-31T01:20:05;96255.16;;;3.57;77.46
9839;BME280;4958;48.150;11.506;2023-01-31T01:22:33;96268.38;;;3.62;77.48
9839;BME280;4958;48.150;11.506;2023-01-31T01:25:00;96264.53;;;3.68;77.50
9839;BME280;4958;48.150;11.506;2023-01-31T01:27:28;96266.25;;;3.67;77.11
9839;BME280;4958;48.150;11.506;2023-01-31T01:29:55;96268.13;;;3.65;77.38
9839;BME280;4958;48.150;11.506;2023-01-31T01:32:22;96263.03;;;3.65;77.21
9839;BME280;4958;48.150;11.506;2023-01-31T01:34:49;96263.16;;;3.64;77.55
9839;BME280;4958;48.150;11.506;2023-01-31T01:37:16;96266.16;;;3.69;77.32
9839;BME280;4958;48.150;11.506;2023-01-31T01:39:45;96271.72;;;3.63;77.51
9839;BME280;4958;48.150;11.506;2023-01-31T01:42:13;96264.91;;;3.63;77.58
9839;BME280;4958;48.150;11.506;2023-01-31T01:44:44;96277.38;;;3.55;77.82
9839;BME280;4958;48.150;11.506;2023-01-31T01:47:14;96272.19;;;3.57;77.98
9839;BME280;4958;48.150;11.506;2023-01-31T01:49:42;96281.41;;;3.46;78.11
9839;BME280;4958;48.150;11.506;2023-01-31T01:52:14;96270.22;;;3.49;78.23
9839;BME280;4958;48.150;11.506;2023-01-31T01:54:45;96278.88;;;3.46;78.63
9839;BME280;4958;48.150;11.506;2023-01-31T01:57:16;96288.38;;;3.56;78.31
9839;BME280;4958;48.150;11.506;2023-01-31T01:59:48;96274.63;;;3.58;77.83
9839;BME280;4958;48.150;11.506;2023-01-31T02:02:17;96276.69;;;3.42;78.35
9839;BME280;4958;48.150;11.506;2023-01-31T02:04:46;96278.09;;;3.46;78.21
9839;BME280;4958;48.150;11.506;2023-01-31T02:07:14;96275.09;;;3.41;78.62
9839;BME280;4958;48.150;11.506;2023-01-31T02:09:46;96293.13;;;3.49;78.39
9839;BME280;4958;48.150;11.506;2023-01-31T02:12:14;96301.91;;;3.56;77.96
9839;BME280;4958;48.150;11.506;2023-01-31T02:14:41;96299.38;;;3.56;77.87
9839;BME280;4958;48.150;11.506;2023-01-31T02:17:11;96302.75;;;3.45;78.29
9839;BME280;4958;48.150;11.506;2023-01-31T02:19:45;96304.00;;;3.51;78.33
9839;BME280;4958;48.150;11.506;2023-01-31T02:22:18;96291.16;;;3.41;78.85
9839;BME280;4958;48.150;11.506;2023-01-31T02:25:17;96303.88;;;3.41;78.89
9839;BME280;4958;48.150;11.506;2023-01-31T02:28:15;96302.16;;;3.42;78.69
9839;BME280;4958;48.150;11.506;2023-01-31T02:30:59;96301.78;;;3.46;78.19
9839;BME280;4958;48.150;11.506;2023-01-31T02:33:35;96301.13;;;3.44;78.15
9839;BME280;4958;48.150;11.506;2023-01-31T02:36:13;96309.78;;;3.42;78.01
9839;BME280;4958;48.150;11.506;2023-01-31T02:38:53;96307.47;;;3.39;78.43
9839;BME280;4958;48.150;11.506;2023-01-31T02:41:28;96314.63;;;3.34;78.10
9839;BME280;4958;48.150;11.506;2023-01-31T02:44:00;96313.72;;;3.35;78.23
9839;BME280;4958;48.150;11.506;2023-01-31T02:46:54;96324.69;;;3.35;77.87
9839;BME280;4958;48.150;11.506;2023-01-31T02:49:29;96309.31;;;3.37;77.85
9839;BME280;4958;48.150;11.506;2023-01-31T02:52:04;96313.03;;;3.44;77.67
9839;BME280;4958;48.150;11.506;2023-01-31T02:54:45;96318.81;;;3.35;77.75
9839;BME280;4958;48.150;11.506;2023-01-31T02:57:34;96322.72;;;3.28;78.04
9839;BME280;4958;48.150;11.506;2023-01-31T03:00:02;96327.94;;;3.37;78.06
9839;BME280;4958;48.150;11.506;2023-01-31T03:02:30;96334.28;;;3.32;77.98
9839;BME280;4958;48.150;11.506;2023-01-31T03:04:57;96334.28;;;3.32;77.77
9839;BME280;4958;48.150;11.506;2023-01-31T03:07:25;96324.69;;;3.35;77.64
9839;BME280;4958;48.150;11.506;2023-01-31T03:10:01;96333.94;;;3.25;77.09
9839;BME280;4958;48.150;11.506;2023-01-31T03:15:28;96341.00;;;3.33;77.07
9839;BME280;4958;48.150;11.506;2023-01-31T03:18:19;96334.19;;;3.22;77.27
9839;BME280;4958;48.150;11.506;2023-01-31T03:20:53;96338.44;;;3.22;77.74
9839;BME280;4958;48.150;11.506;2023-01-31T03:23:23;96343.75;;;3.19;77.50
9839;BME280;4958;48.150;11.506;2023-01-31T03:25:53;96350.25;;;3.23;77.24
9839;BME280;4958;48.150;11.506;2023-01-31T03:28:26;96352.09;;;3.21;77.80
9839;BME280;4958;48.150;11.506;2023-01-31T03:30:59;96339.84;;;3.26;77.33
9839;BME280;4958;48.150;11.506;2023-01-31T03:33:29;96343.88;;;3.28;77.09
9839;BME280;4958;48.150;11.506;2023-01-31T03:36:04;96351.78;;;3.36;76.89
9839;BME280;4958;48.150;11.506;2023-01-31T03:38:40;96361.03;;;3.37;76.51
9839;BME280;4958;48.150;11.506;2023-01-31T03:41:13;96353.06;;;3.42;76.39
9839;BME280;4958;48.150;11.506;2023-01-31T03:43:48;96368.22;;;3.43;76.33
9839;BME280;4958;48.150;11.506;2023-01-31T03:46:19;96360.44;;;3.34;76.31
9839;BME280;4958;48.150;11.506;2023-01-31T03:48:50;96363.22;;;3.31;76.67
9839;BME280;4958;48.150;11.506;2023-01-31T03:51:24;96376.84;;;3.30;76.76
9839;BME280;4958;48.150;11.506;2023-01-31T03:53:55;96376.31;;;3.37;76.51
9839;BME280;4958;48.150;11.506;2023-01-31T03:56:26;96378.63;;;3.40;76.63
9839;BME280;4958;48.150;11.506;2023-01-31T03:58:57;96378.25;;;3.34;76.64
9839;BME280;4958;48.150;11.506;2023-01-31T04:01:27;96373.75;;;3.26;76.92
9839;BME280;4958;48.150;11.506;2023-01-31T04:03:57;96381.38;;;3.26;76.84
9839;BME280;4958;48.150;11.506;2023-01-31T04:06:27;96378.94;;;3.25;76.61
9839;BME280;4958;48.150;11.506;2023-01-31T04:08:54;96374.66;;;3.25;77.04
9839;BME280;4958;48.150;11.506;2023-01-31T04:11:23;96391.19;;;3.20;77.16
9839;BME280;4958;48.150;11.506;2023-01-31T04:13:51;96387.59;;;3.22;77.13
9839;BME280;4958;48.150;11.506;2023-01-31T04:16:17;96390.97;;;3.23;77.12
9839;BME280;4958;48.150;11.506;2023-01-31T04:18:44;96388.25;;;3.13;76.68
9839;BME280;4958;48.150;11.506;2023-01-31T04:21:15;96387.44;;;3.12;76.98
9839;BME280;4958;48.150;11.506;2023-01-31T04:23:43;96396.06;;;3.23;76.88
9839;BME280;4958;48.150;11.506;2023-01-31T04:26:09;96406.00;;;3.26;76.61
9839;BME280;4958;48.150;11.506;2023-01-31T04:28:36;96402.78;;;3.24;76.66
9839;BME280;4958;48.150;11.506;2023-01-31T04:31:02;96393.50;;;3.23;76.11
9839;BME280;4958;48.150;11.506;2023-01-31T04:33:29;96397.63;;;3.12;76.43
9839;BME280;4958;48.150;11.506;2023-01-31T04:35:55;96397.53;;;3.14;76.70
9839;BME280;4958;48.150;11.506;2023-01-31T04:38:22;96398.81;;;3.20;76.20
9839;BME280;4958;48.150;11.506;2023-01-31T04:40:50;96410.13;;;3.16;76.33
9839;BME280;4958;48.150;11.506;2023-01-31T04:43:16;96414.19;;;3.18;76.08
9839;BME280;4958;48.150;11.506;2023-01-31T04:45:42;96420.19;;;3.17;75.96
9839;BME280;4958;48.150;11.506;2023-01-31T04:48:09;96416.75;;;3.18;76.25
9839;BME280;4958;48.150;11.506;2023-01-31T04:50:35;96414.63;;;3.12;76.16
9839;BME280;4958;48.150;11.506;2023-01-31T04:53:02;96413.00;;;3.11;76.45
9839;BME280;4958;48.150;11.506;2023-01-31T04:55:29;96428.47;;;3.08;76.76
9839;BME280;4958;48.150;11.506;2023-01-31T04:57:57;96432.91;;;3.06;76.92
9839;BME280;4958;48.150;11.506;2023-01-31T05:00:23;96437.41;;;3.13;77.43
9839;BME280;4958;48.150;11.506;2023-01-31T05:02:49;96432.53;;;3.10;76.36
9839;BME280;4958;48.150;11.506;2023-01-31T05:05:17;96430.91;;;3.09;76.50
9839;BME280;4958;48.150;11.506;2023-01-31T05:07:43;96438.09;;;3.04;76.54
9839;BME280;4958;48.150;11.506;2023-01-31T05:10:10;96437.38;;;3.02;76.64
9839;BME280;4958;48.150;11.506;2023-01-31T05:12:37;96433.34;;;3.11;76.63
9839;BME280;4958;48.150;11.506;2023-01-31T05:15:06;96446.78;;;3.13;76.62
9839;BME280;4958;48.150;11.506;2023-01-31T05:17:32;96440.66;;;3.16;76.36
9839;BME280;4958;48.150;11.506;2023-01-31T05:19:59;96445.94;;;3.01;76.35
9839;BME280;4958;48.150;11.506;2023-01-31T05:22:25;96447.78;;;2.99;76.33
9839;BME280;4958;48.150;11.506;2023-01-31T05:24:52;96446.84;;;3.00;76.69
9839;BME280;4958;48.150;11.506;2023-01-31T05:27:18;96441.56;;;3.03;76.83
9839;BME280;4958;48.150;11.506;2023-01-31T05:29:45;96445.34;;;2.98;76.59
9839;BME280;4958;48.150;11.506;2023-01-31T05:32:13;96446.91;;;2.88;76.83
9839;BME280;4958;48.150;11.506;2023-01-31T05:34:40;96448.28;;;2.92;76.62
9839;BME280;4958;48.150;11.506;2023-01-31T05:37:07;96445.44;;;2.96;76.50
9839;BME280;4958;48.150;11.506;2023-01-31T05:39:33;96454.31;;;2.91;76.55
9839;BME280;4958;48.150;11.506;2023-01-31T05:42:00;96449.22;;;2.91;76.35
9839;BME280;4958;48.150;11.506;2023-01-31T05:44:27;96442.75;;;2.87;76.25
9839;BME280;4958;48.150;11.506;2023-01-31T05:46:53;96449.31;;;2.89;76.59
9839;BME280;4958;48.150;11.506;2023-01-31T05:49:21;96449.31;;;2.89;76.22
9839;BME280;4958;48.150;11.506;2023-01-31T05:51:47;96453.16;;;2.95;76.38
9839;BME280;4958;48.150;11.506;2023-01-31T05:54:14;96455.78;;;3.06;75.61
9839;BME280;4958;48.150;11.506;2023-01-31T05:56:40;96465.16;;;3.05;75.90
9839;BME280;4958;48.150;11.506;2023-01-31T05:59:07;96469.19;;;3.08;75.48
9839;BME280;4958;48.150;11.506;2023-01-31T06:01:33;96471.25;;;3.03;74.89
9839;BME280;4958;48.150;11.506;2023-01-31T06:04:01;96465.16;;;3.05;74.81
9839;BME280;4958;48.150;11.506;2023-01-31T06:06:29;96464.28;;;2.94;75.25
9839;BME280;4958;48.150;11.506;2023-01-31T06:08:55;96460.09;;;2.93;75.75
9839;BME280;4958;48.150;11.506;2023-01-31T06:11:21;96454.31;;;2.91;76.46
9839;BME280;4958;48.150;11.506;2023-01-31T06:13:49;96437.38;;;2.78;76.31
9839;BME280;4958;48.150;11.506;2023-01-31T06:16:15;96448.47;;;2.77;76.34
9839;BME280;4958;48.150;11.506;2023-01-31T06:18:42;96449.47;;;2.88;76.37
9839;BME280;4958;48.150;11.506;2023-01-31T06:21:08;96452.00;;;2.88;75.37
9839;BME280;4958;48.150;11.506;2023-01-31T06:23:37;96444.84;;;2.93;75.23
9839;BME280;4958;48.150;11.506;2023-01-31T06:26:04;96448.69;;;2.98;74.80
9839;BME280;4958;48.150;11.506;2023-01-31T06:28:31;96436.19;;;2.95;75.36
9839;BME280;4958;48.150;11.506;2023-01-31T06:30:57;96443.91;;;2.94;74.68
9839;BME280;4958;48.150;11.506;2023-01-31T06:33:23;96448.91;;;2.95;74.88
9839;BME280;4958;48.150;11.506;2023-01-31T06:35:50;96441.28;;;2.95;74.61
9839;BME280;4958;48.150;11.506;2023-01-31T06:38:16;96451.66;;;2.92;74.84
9839;BME280;4958;48.150;11.506;2023-01-31T06:40:44;96458.56;;;2.90;75.01
9839;BME280;4958;48.150;11.506;2023-01-31T06:43:10;96459.63;;;2.88;74.98
9839;BME280;4958;48.150;11.506;2023-01-31T06:45:37;96460.44;;;2.88;74.71
9839;BME280;4958;48.150;11.506;2023-01-31T06:48:04;96466.66;;;2.84;74.88
9839;BME280;4958;48.150;11.506;2023-01-31T06:50:30;96459.63;;;2.88;74.60
9839;BME280;4958;48.150;11.506;2023-01-31T06:52:57;96466.31;;;2.89;75.23
9839;BME280;4958;48.150;11.506;2023-01-31T06:55:24;96468.75;;;2.90;74.77
9839;BME280;4958;48.150;11.506;2023-01-31T06:57:52;96469.47;;;2.92;74.92
9839;BME280;4958;48.150;11.506;2023-01-31T07:00:20;96481.38;;;2.92;74.62
9839;BME280;4958;48.150;11.506;2023-01-31T07:02:48;96489.19;;;2.89;74.74
9839;BME280;4958;48.150;11.506;2023-01-31T07:05:15;96485.97;;;2.87;74.34
9839;BME280;4958;48.150;11.506;2023-01-31T07:07:42;96493.81;;;2.84;74.40
9839;BME280;4958;48.150;11.506;2023-01-31T07:10:10;96499.06;;;2.93;74.07
9839;BME280;4958;48.150;11.506;2023-01-31T07:12:37;96493.25;;;3.04;73.84
9839;BME280;4958;48.150;11.506;2023-01-31T07:15:06;96485.44;;;2.94;73.14
9839;BME280;4958;48.150;11.506;2023-01-31T07:17:32;96489.94;;;3.15;72.80
9839;BME280;4958;48.150;11.506;2023-01-31T07:19:59;96482.19;;;3.40;71.37
9839;BME280;4958;48.150;11.506;2023-01-31T07:22:25;96482.94;;;3.64;70.85
9839;BME280;4958;48.150;11.506;2023-01-31T07:24:52;96485.41;;;3.88;69.44
9839;BME280;4958;48.150;11.506;2023-01-31T07:27:18;96487.66;;;4.04;68.62
9839;BME280;4958;48.150;11.506;2023-01-31T07:29:45;96490.47;;;4.23;68.07
9839;BME280;4958;48.150;11.506;2023-01-31T07:32:12;96492.19;;;4.23;67.43
9839;BME280;4958;48.150;11.506;2023-01-31T07:34:40;96487.56;;;4.16;67.00
9839;BME280;4958;48.150;11.506;2023-01-31T07:37:06;96490.06;;;4.05;67.65
9839;BME280;4958;48.150;11.506;2023-01-31T07:39:32;96482.28;;;3.73;68.83
9839;BME280;4958;48.150;11.506;2023-01-31T07:41:59;96487.78;;;3.56;69.20
9839;BME280;4958;48.150;11.506;2023-01-31T07:44:25;96479.97;;;3.46;70.09
9839;BME280;4958;48.150;11.506;2023-01-31T07:46:52;96481.19;;;3.30;70.22
9839;BME280;4958;48.150;11.506;2023-01-31T07:49:21;96485.72;;;3.26;70.79
9839;BME280;4958;48.150;11.506;2023-01-31T07:51:48;96488.25;;;3.26;71.11
9839;BME280;4958;48.150;11.506;2023-01-31T07:54:14;96486.31;;;3.65;70.41
9839;BME280;4958;48.150;11.506;2023-01-31T07:56:41;96490.19;;;3.93;68.41
9839;BME280;4958;48.150;11.506;2023-01-31T07:59:07;96491.00;;;4.04;67.52
9839;BME280;4958;48.150;11.506;2023-01-31T08:01:33;96491.16;;;4.36;67.75
9839;BME280;4958;48.150;11.506;2023-01-31T08:04:18;96498.69;;;4.49;65.53
9839;BME280;4958;48.150;11.506;2023-01-31T08:06:46;96489.84;;;4.75;65.39
9839;BME280;4958;48.150;11.506;2023-01-31T08:09:12;96485.53;;;4.98;64.63
9839;BME280;4958;48.150;11.506;2023-01-31T08:11:39;96481.66;;;5.15;63.94
9839;BME280;4958;48.150;11.506;2023-01-31T08:14:05;96478.63;;;5.42;63.13
9839;BME280;4958;48.150;11.506;2023-01-31T08:16:33;96473.63;;;5.40;61.82
9839;BME280;4958;48.150;11.506;2023-01-31T08:19:00;96476.97;;;5.52;62.30
9839;BME280;4958;48.150;11.506;2023-01-31T08:21:27;96479.41;;;5.74;61.63
9839;BME280;4958;48.150;11.506;2023-01-31T08:23:54;96486.44;;;5.93;60.38
9839;BME280;4958;48.150;11.506;2023-01-31T08:26:21;96480.53;;;5.81;59.90
9839;BME280;4958;48.150;11.506;2023-01-31T08:28:49;96475.97;;;5.96;59.76
9839;BME280;4958;48.150;11.506;2023-01-31T08:31:19;96490.72;;;6.13;58.64
9839;BME280;4958;48.150;11.506;2023-01-31T08:33:46;96477.47;;;6.29;58.81
9839;BME280;4958;48.150;11.506;2023-01-31T08:36:17;96477.25;;;6.11;58.32
9839;BME280;4958;48.150;11.506;2023-01-31T08:38:44;96480.91;;;5.77;59.05
9839;BME280;4958;48.150;11.506;2023-01-31T08:41:12;96479.22;;;5.87;59.71
9839;BME280;4958;48.150;11.506;2023-01-31T08:43:39;96480.84;;;6.09;58.84
9839;BME280;4958;48.150;11.506;2023-01-31T08:46:05;96473.91;;;6.20;58.69
9839;BME280;4958;48.150;11.506;2023-01-31T08:48:33;96478.81;;;6.33;57.81
9839;BME280;4958;48.150;11.506;2023-01-31T08:51:00;96481.41;;;6.43;57.76
9839;BME280;4958;48.150;11.506;2023-01-31T08:53:27;96484.31;;;6.29;57.04
9839;BME280;4958;48.150;11.506;2023-01-31T08:55:57;96484.78;;;6.43;57.90
9839;BME280;4958;48.150;11.506;2023-01-31T08:58:25;96486.16;;;6.47;57.35
9839;BME280;4958;48.150;11.506;2023-01-31T09:00:51;96486.22;;;6.67;56.90
9839;BME280;4958;48.150;11.506;2023-01-31T09:03:17;96476.47;;;6.51;56.59
9839;BME280;4958;48.150;11.506;2023-01-31T09:05:44;96480.84;;;6.39;56.67
9839;BME280;4958;48.150;11.506;2023-01-31T09:08:11;96482.47;;;6.40;56.83
9839;BME280;4958;48.150;11.506;2023-01-31T09:10:37;96486.91;;;6.38;56.27
9839;BME280;4958;48.150;11.506;2023-01-31T09:13:04;96488.47;;;6.60;56.38
9839;BME280;4958;48.150;11.506;2023-01-31T09:15:31;96473.28;;;6.68;55.79
9839;BME280;4958;48.150;11.506;2023-01-31T09:17:58;96495.38;;;6.69;55.24
9839;BME280;4958;48.150;11.506;2023-01-31T09:20:26;96475.97;;;6.67;55.36
9839;BME280;4958;48.150;11.506;2023-01-31T09:22:52;96475.47;;;6.82;55.45
9839;BME280;4958;48.150;11.506;2023-01-31T09:25:18;96482.81;;;7.06;55.20
9839;BME280;4958;48.150;11.506;2023-01-31T09:27:45;96477.44;;;7.09;54.32
9839;BME280;4958;48.150;11.506;2023-01-31T09:30:12;96477.94;;;7.03;53.90
9839;BME280;4958;48.150;11.506;2023-01-31T09:32:41;96484.44;;;7.17;54.39
9839;BME280;4958;48.150;11.506;2023-01-31T09:35:08;96484.44;;;7.07;53.49
9839;BME280;4958;48.150;11.506;2023-01-31T09:37:35;96496.25;;;6.99;53.31
9839;BME280;4958;48.150;11.506;2023-01-31T09:40:02;96496.69;;;7.13;53.08
9839;BME280;4958;48.150;11.506;2023-01-31T09:42:32;96485.88;;;7.00;52.89
9839;BME280;4958;48.150;11.506;2023-01-31T09:45:06;96508.78;;;6.92;53.46
9839;BME280;4958;48.150;11.506;2023-01-31T09:47:40;96503.47;;;6.74;53.45
9839;BME280;4958;48.150;11.506;2023-01-31T09:50:17;96489.84;;;6.64;53.74
9839;BME280;4958;48.150;11.506;2023-01-31T09:52:45;96494.50;;;6.49;54.05
9839;BME280;4958;48.150;11.506;2023-01-31T09:55:14;96501.44;;;6.68;54.73
9839;BME280;4958;48.150;11.506;2023-01-31T09:57:47;96501.81;;;6.64;54.44
9839;BME280;4958;48.150;11.506;2023-01-31T10:00:20;96520.31;;;6.16;54.97
9839;BME280;4958;48.150;11.506;2023-01-31T10:03:03;96511.81;;;5.74;56.01
9839;BME280;4958;48.150;11.506;2023-01-31T10:05:36;96505.00;;;5.63;56.64
9839;BME280;4958;48.150;11.506;2023-01-31T10:08:12;96500.78;;;5.41;55.99
9839;BME280;4958;48.150;11.506;2023-01-31T10:10:44;96491.44;;;5.31;57.00
9839;BME280;4958;48.150;11.506;2023-01-31T10:13:16;96491.38;;;5.42;56.48
9839;BME280;4958;48.150;11.506;2023-01-31T10:15:47;96494.88;;;5.41;56.00
9839;BME280;4958;48.150;11.506;2023-01-31T10:18:17;96485.88;;;5.37;55.91
9839;BME280;4958;48.150;11.506;2023-01-31T10:20:49;96468.59;;;5.29;56.43
9839;BME280;4958;48.150;11.506;2023-01-31T10:23:20;96468.94;;;5.25;55.71
9839;BME280;4958;48.150;11.506;2023-01-31T10:25:51;96459.25;;;5.39;55.79
9839;BME280;4958;48.150;11.506;2023-01-31T10:28:23;96458.81;;;5.34;55.57
9839;BME280;4958;48.150;11.506;2023-01-31T10:30:56;96467.53;;;5.32;55.33
9839;BME280;4958;48.150;11.506;2023-01-31T10:33:32;96459.59;;;5.14;55.62
9839;BME280;4958;48.150;11.506;2023-01-31T10:36:03;96459.72;;;5.01;56.58
9839;BME280;4958;48.150;11.506;2023-01-31T10:38:33;96457.22;;;4.90;56.95
9839;BME280;4958;48.150;11.506;2023-01-31T10:41:10;96452.94;;;4.91;57.33
9839;BME280;4958;48.150;11.506;2023-01-31T10:43:44;96452.78;;;5.03;57.22
9839;BME280;4958;48.150;11.506;2023-01-31T10:46:13;96461.84;;;4.96;57.53
9839;BME280;4958;48.150;11.506;2023-01-31T10:48:44;96459.81;;;4.79;57.92
9839;BME280;4958;48.150;11.506;2023-01-31T10:51:22;96457.22;;;4.90;58.23
9839;BME280;4958;48.150;11.506;2023-01-31T10:54:05;96456.34;;;5.12;58.59
9839;BME280;4958;48.150;11.506;2023-01-31T10:56:40;96445.97;;;5.25;57.89
9839;BME280;4958;48.150;11.506;2023-01-31T10:59:12;96444.00;;;5.28;57.84
9839;BME280;4958;48.150;11.506;2023-01-31T11:01:41;96440.63;;;5.28;58.34
9839;BME280;4958;48.150;11.506;2023-01-31T11:04:22;96441.16;;;5.10;58.45
9839;BME280;4958;48.150;11.506;2023-01-31T11:06:49;96429.09;;;5.12;58.82
9839;BME280;4958;48.150;11.506;2023-01-31T11:09:15;96427.25;;;5.03;58.93
9839;BME280;4958;48.150;11.506;2023-01-31T11:11:53;96419.19;;;4.98;59.35
9839;BME280;4958;48.150;11.506;2023-01-31T11:14:20;96417.09;;;4.92;59.89
9839;BME280;4958;48.150;11.506;2023-01-31T11:16:47;96409.78;;;4.99;59.92
9839;BME280;4958;48.150;11.506;2023-01-31T11:19:18;96396.91;;;4.89;60.33
9839;BME280;4958;48.150;11.506;2023-01-31T11:21:50;96396.09;;;4.89;59.95
9839;BME280;4958;48.150;11.506;2023-01-31T11:24:20;96392.28;;;4.83;60.19
9839;BME280;4958;48.150;11.506;2023-01-31T11:26:51;96394.03;;;4.82;60.50
9839;BME280;4958;48.150;11.506;2023-01-31T11:29:21;96386.25;;;4.84;60.48
9839;BME280;4958;48.150;11.506;2023-01-31T11:31:51;96381.44;;;4.70;60.55
9839;BME280;4958;48.150;11.506;2023-01-31T11:34:21;96375.88;;;4.65;61.11
9839;BME280;4958;48.150;11.506;2023-01-31T11:36:48;96372.88;;;4.71;61.34
9839;BME280;4958;48.150;11.506;2023-01-31T11:39:27;96360.31;;;4.79;60.91
9839;BME280;4958;48.150;11.506;2023-01-31T11:41:54;96354.97;;;4.82;60.77
9839;BME280;4958;48.150;11.506;2023-01-31T11:44:22;96358.94;;;4.75;61.06
9839;BME280;4958;48.150;11.506;2023-01-31T11:46:51;96354.78;;;4.74;61.39
9839;BME280;4958;48.150;11.506;2023-01-31T11:49:30;96357.78;;;4.79;61.04
9839;BME280;4958;48.150;11.506;2023-01-31T11:52:00;96353.91;;;4.84;60.75
9839;BME280;4958;48.150;11.506;2023-01-31T11:54:30;96345.66;;;4.92;60.72
9839;BME280;4958;48.150;11.506;2023-01-31T11:56:57;96350.16;;;5.00;60.67
9839;BME280;4958;48.150;11.506;2023-01-31T11:59:27;96323.25;;;4.96;60.85
9839;BME280;4958;48.150;11.506;2023-01-31T12:01:56;96325.94;;;4.94;60.85
9839;BME280;4958;48.150;11.506;2023-01-31T12:04:27;96319.69;;;4.87;61.04
9839;BME280;4958;48.150;11.506;2023-01-31T12:07:02;96305.06;;;4.89;61.10
9839;BME280;4958;48.150;11.506;2023-01-31T12:09:30;96313.28;;;4.93;61.08
9839;BME280;4958;48.150;11.506;2023-01-31T12:12:21;96312.34;;;4.94;61.63
9839;BME280;4958;48.150;11.506;2023-01-31T12:14:50;96304.88;;;5.02;61.42
9839;BME280;4958;48.150;11.506;2023-01-31T12:17:20;96299.78;;;5.02;61.44
9839;BME280;4958;48.150;11.506;2023-01-31T12:19:55;96296.47;;;5.11;61.50
9839;BME280;4958;48.150;11.506;2023-01-31T12:22:30;96302.47;;;5.00;61.53
9839;BME280;4958;48.150;11.506;2023-01-31T12:25:06;96301.72;;;5.09;61.64
9839;BME280;4958;48.150;11.506;2023-01-31T12:27:48;96313.91;;;5.06;61.70
9839;BME280;4958;48.150;11.506;2023-01-31T12:30:50;96331.72;;;4.96;61.41
9839;BME280;4958;48.150;11.506;2023-01-31T12:33:30;96318.19;;;4.84;62.27
9839;BME280;4958;48.150;11.506;2023-01-31T12:36:10;96300.75;;;4.69;62.82
9839;BME280;4958;48.150;11.506;2023-01-31T12:38:57;96298.81;;;4.82;62.65
9839;BME280;4958;48.150;11.506;2023-01-31T12:41:30;96292.56;;;4.86;62.56
9839;BME280;4958;48.150;11.506;2023-01-31T12:44:20;96288.81;;;4.90;62.54
9839;BME280;4958;48.150;11.506;2023-01-31T12:47:03;96289.75;;;4.89;62.67
9839;BME280;4958;48.150;11.506;2023-01-31T12:49:47;96286.22;;;4.80;62.70
9839;BME280;4958;48.150;11.506;2023-01-31T12:52:20;96288.94;;;4.89;62.71
9839;BME280;4958;48.150;11.506;2023-01-31T12:55:02;96307.31;;;5.03;62.58
9839;BME280;4958;48.150;11.506;2023-01-31T12:57:38;96299.84;;;5.11;62.01
9839;BME280;4958;48.150;11.506;2023-01-31T13:00:31;96292.06;;;5.34;61.76
9839;BME280;4958;48.150;11.506;2023-01-31T13:03:24;96294.13;;;5.49;61.21
9839;BME280;4958;48.150;11.506;2023-01-31T13:05:59;96278.13;;;5.47;61.07
9839;BME280;4958;48.150;11.506;2023-01-31T13:08:28;96273.19;;;5.55;60.88
9839;BME280;4958;48.150;11.506;2023-01-31T13:11:00;96265.69;;;5.64;60.89
9839;BME280;4958;48.150;11.506;2023-01-31T13:13:30;96255.38;;;5.75;60.53
9839;BME280;4958;48.150;11.506;2023-01-31T13:16:02;96249.88;;;5.79;60.57
9839;BME280;4958;48.150;11.506;2023-01-31T13:18:32;96253.03;;;6.02;59.75
9839;BME280;4958;48.150;11.506;2023-01-31T13:21:02;96258.44;;;6.09;59.44
9839;BME280;4958;48.150;11.506;2023-01-31T13:23:33;96265.31;;;6.08;58.79
9839;BME280;4958;48.150;11.506;2023-01-31T13:26:07;96262.50;;;6.11;58.71
9839;BME280;4958;48.150;11.506;2023-01-31T13:28:40;96254.56;;;6.14;59.14
9839;BME280;4958;48.150;11.506;2023-01-31T13:31:13;96250.66;;;6.20;59.32
9839;BME280;4958;48.150;11.506;2023-01-31T13:33:45;96232.97;;;5.98;59.18
9839;BME280;4958;48.150;11.506;2023-01-31T13:36:20;96229.59;;;5.87;59.39
9839;BME280;4958;48.150;11.506;2023-01-31T13:38:48;96228.06;;;5.66;59.41
9839;BME280;4958;48.150;11.506;2023-01-31T13:41:23;96209.44;;;5.44;60.16